sensor_id;sensor_type;location;lat;lon;timestamp;P1;durP1;ratioP1;P2;durP2;ratioP2
79261;SDS011;68699;48.220;16.358;2024-03-17T00:00:21;0.60;;;0.60;;
79261;SDS011;68699;48.220;16.358;2024-03-17T00:02:47;0.60;;;0.60;;
79261;SDS011;68699;48.220;16.358;2024-03-17T00:05:14;0.70;;;0.70;;
79261;SDS011;68699;48.220;16.358;2024-03-17T00:07:40;0.80;;;0.80;;
79261;SDS011;68699;48.220;16.358;2024-03-17T00:10:06;0.80;;;0.80;;
79261;SDS011;68699;48.220;16.358;2024-03-17T00:12:33;0.73;;;0.73;;
79261;SDS011;68699;48.220;16.358;2024-03-17T00:14:59;0.70;;;0.70;;
79261;SDS011;68699;48.220;16.358;2024-03-17T00:17:25;0.80;;;0.80;;
79261;SDS011;68699;48.220;16.358;2024-03-17T00:19:51;0.70;;;0.70;;
79261;SDS011;68699;48.220;16.358;2024-03-17T00:22:17;1.43;;;1.00;;
79261;SDS011;68699;48.220;16.358;2024-03-17T00:24:43;1.10;;;1.00;;
79261;SDS011;68699;48.220;16.358;2024-03-17T00:27:10;1.07;;;1.07;;
79261;SDS011;68699;48.220;16.358;2024-03-17T00:29:37;1.17;;;1.17;;
79261;SDS011;68699;48.220;16.358;2024-03-17T00:32:03;1.20;;;1.20;;
79261;SDS011;68699;48.220;16.358;2024-03-17T00:34:29;1.50;;;1.40;;
79261;SDS011;68699;48.220;16.358;2024-03-17T00:36:55;1.43;;;1.33;;
79261;SDS011;68699;48.220;16.358;2024-03-17T00:39:21;1.80;;;1.70;;
79261;SDS011;68699;48.220;16.358;2024-03-17T00:41:48;1.70;;;1.60;;
79261;SDS011;68699;48.220;16.358;2024-03-17T00:44:14;1.30;;;1.30;;
79261;SDS011;68699;48.220;16.358;2024-03-17T00:46:40;1.60;;;1.50;;
79261;SDS011;68699;48.220;16.358;2024-03-17T00:49:07;1.40;;;1.30;;
79261;SDS011;68699;48.220;16.358;2024-03-17T00:51:33;1.40;;;1.30;;
79261;SDS011;68699;48.220;16.358;2024-03-17T00:53:59;1.70;;;1.60;;
79261;SDS011;68699;48.220;16.358;2024-03-17T00:56:25;1.50;;;1.40;;
79261;SDS011;68699;48.220;16.358;2024-03-17T00:58:53;2.20;;;1.57;;
79261;SDS011;68699;48.220;16.358;2024-03-17T01:01:19;1.23;;;1.23;;
79261;SDS011;68699;48.220;16.358;2024-03-17T01:03:45;1.53;;;1.20;;
79261;SDS011;68699;48.220;16.358;2024-03-17T01:06:11;1.60;;;1.50;;
79261;SDS011;68699;48.220;16.358;2024-03-17T01:08:38;1.90;;;1.73;;
79261;SDS011;68699;48.220;16.358;2024-03-17T01:11:05;1.50;;;1.40;;
79261;SDS011;68699;48.220;16.358;2024-03-17T01:13:33;1.60;;;1.50;;
79261;SDS011;68699;48.220;16.358;2024-03-17T01:16:00;1.80;;;1.70;;
79261;SDS011;68699;48.220;16.358;2024-03-17T01:18:26;1.80;;;1.70;;
79261;SDS011;68699;48.220;16.358;2024-03-17T01:20:52;2.17;;;2.07;;
79261;SDS011;68699;48.220;16.358;2024-03-17T01:23:18;2.50;;;2.07;;
79261;SDS011;68699;48.220;16.358;2024-03-17T01:25:44;2.10;;;2.00;;
79261;SDS011;68699;48.220;16.358;2024-03-17T01:28:10;2.10;;;2.00;;
79261;SDS011;68699;48.220;16.358;2024-03-17T01:30:37;2.13;;;2.00;;
79261;SDS011;68699;48.220;16.358;2024-03-17T01:33:04;2.30;;;2.20;;
79261;SDS011;68699;48.220;16.358;2024-03-17T01:35:31;2.20;;;2.10;;
79261;SDS011;68699;48.220;16.358;2024-03-17T01:37:57;2.10;;;2.00;;
79261;SDS011;68699;48.220;16.358;2024-03-17T01:40:23;2.23;;;2.10;;
79261;SDS011;68699;48.220;16.358;2024-03-17T01:42:49;2.27;;;2.10;;
79261;SDS011;68699;48.220;16.358;2024-03-17T01:45:18;1.90;;;1.80;;
79261;SDS011;68699;48.220;16.358;2024-03-17T01:47:46;2.37;;;2.17;;
79261;SDS011;68699;48.220;16.358;2024-03-17T01:50:12;2.53;;;2.33;;
79261;SDS011;68699;48.220;16.358;2024-03-17T01:52:41;2.47;;;2.27;;
79261;SDS011;68699;48.220;16.358;2024-03-17T01:55:07;2.07;;;1.97;;
79261;SDS011;68699;48.220;16.358;2024-03-17T01:57:34;2.80;;;2.60;;
79261;SDS011;68699;48.220;16.358;2024-03-17T02:00:00;2.70;;;2.50;;
79261;SDS011;68699;48.220;16.358;2024-03-17T02:02:26;2.80;;;2.60;;
79261;SDS011;68699;48.220;16.358;2024-03-17T02:04:52;3.10;;;2.80;;
79261;SDS011;68699;48.220;16.358;2024-03-17T02:07:18;3.00;;;2.70;;
79261;SDS011;68699;48.220;16.358;2024-03-17T02:09:44;2.57;;;2.37;;
79261;SDS011;68699;48.220;16.358;2024-03-17T02:12:10;2.87;;;2.67;;
79261;SDS011;68699;48.220;16.358;2024-03-17T02:14:37;3.10;;;2.90;;
79261;SDS011;68699;48.220;16.358;2024-03-17T02:17:03;3.53;;;2.80;;
79261;SDS011;68699;48.220;16.358;2024-03-17T02:19:29;3.37;;;3.03;;
79261;SDS011;68699;48.220;16.358;2024-03-17T02:21:57;4.30;;;3.07;;
79261;SDS011;68699;48.220;16.358;2024-03-17T02:24:23;3.30;;;2.90;;
79261;SDS011;68699;48.220;16.358;2024-03-17T02:26:49;3.63;;;3.33;;
79261;SDS011;68699;48.220;16.358;2024-03-17T02:29:15;3.60;;;3.13;;
79261;SDS011;68699;48.220;16.358;2024-03-17T02:31:41;4.90;;;3.17;;
79261;SDS011;68699;48.220;16.358;2024-03-17T02:34:07;5.47;;;3.50;;
79261;SDS011;68699;48.220;16.358;2024-03-17T02:36:33;3.90;;;3.33;;
79261;SDS011;68699;48.220;16.358;2024-03-17T02:38:59;4.30;;;3.40;;
79261;SDS011;68699;48.220;16.358;2024-03-17T02:41:43;3.50;;;3.20;;
79261;SDS011;68699;48.220;16.358;2024-03-17T02:44:11;3.70;;;3.40;;
79261;SDS011;68699;48.220;16.358;2024-03-17T02:46:37;3.53;;;3.23;;
79261;SDS011;68699;48.220;16.358;2024-03-17T02:49:03;5.03;;;3.40;;
79261;SDS011;68699;48.220;16.358;2024-03-17T02:51:30;3.30;;;3.00;;
79261;SDS011;68699;48.220;16.358;2024-03-17T02:53:56;3.27;;;2.93;;
79261;SDS011;68699;48.220;16.358;2024-03-17T02:56:24;3.50;;;3.20;;
79261;SDS011;68699;48.220;16.358;2024-03-17T02:58:51;4.90;;;3.20;;
79261;SDS011;68699;48.220;16.358;2024-03-17T03:01:17;4.53;;;3.27;;
79261;SDS011;68699;48.220;16.358;2024-03-17T03:03:44;4.70;;;2.90;;
79261;SDS011;68699;48.220;16.358;2024-03-17T03:06:10;3.70;;;3.23;;
79261;SDS011;68699;48.220;16.358;2024-03-17T03:08:39;4.13;;;3.37;;
79261;SDS011;68699;48.220;16.358;2024-03-17T03:11:09;4.20;;;3.30;;
79261;SDS011;68699;48.220;16.358;2024-03-17T03:13:41;4.33;;;3.67;;
79261;SDS011;68699;48.220;16.358;2024-03-17T03:16:08;4.23;;;3.23;;
79261;SDS011;68699;48.220;16.358;2024-03-17T03:18:35;4.20;;;3.50;;
79261;SDS011;68699;48.220;16.358;2024-03-17T03:21:01;3.47;;;3.17;;
79261;SDS011;68699;48.220;16.358;2024-03-17T03:23:27;5.40;;;3.47;;
79261;SDS011;68699;48.220;16.358;2024-03-17T03:25:57;3.90;;;3.37;;
79261;SDS011;68699;48.220;16.358;2024-03-17T03:28:24;3.93;;;3.50;;
79261;SDS011;68699;48.220;16.358;2024-03-17T03:30:50;4.57;;;4.10;;
79261;SDS011;68699;48.220;16.358;2024-03-17T03:33:17;4.20;;;3.80;;
79261;SDS011;68699;48.220;16.358;2024-03-17T03:35:43;3.73;;;3.27;;
79261;SDS011;68699;48.220;16.358;2024-03-17T03:38:11;3.70;;;3.40;;
79261;SDS011;68699;48.220;16.358;2024-03-17T03:40:38;5.33;;;3.80;;
79261;SDS011;68699;48.220;16.358;2024-03-17T03:43:04;4.20;;;3.47;;
79261;SDS011;68699;48.220;16.358;2024-03-17T03:45:31;4.33;;;3.60;;
79261;SDS011;68699;48.220;16.358;2024-03-17T03:47:57;5.73;;;3.47;;
79261;SDS011;68699;48.220;16.358;2024-03-17T03:50:23;4.17;;;3.77;;
79261;SDS011;68699;48.220;16.358;2024-03-17T03:52:50;5.27;;;3.67;;
79261;SDS011;68699;48.220;16.358;2024-03-17T03:55:16;7.30;;;4.47;;
79261;SDS011;68699;48.220;16.358;2024-03-17T03:57:43;4.27;;;3.67;;
79261;SDS011;68699;48.220;16.358;2024-03-17T04:00:13;4.10;;;3.70;;
79261;SDS011;68699;48.220;16.358;2024-03-17T04:02:39;3.93;;;3.53;;
79261;SDS011;68699;48.220;16.358;2024-03-17T04:05:06;4.50;;;3.80;;
79261;SDS011;68699;48.220;16.358;2024-03-17T04:07:32;5.73;;;4.13;;
79261;SDS011;68699;48.220;16.358;2024-03-17T04:09:59;4.10;;;3.80;;
79261;SDS011;68699;48.220;16.358;2024-03-17T04:12:26;4.50;;;3.60;;
79261;SDS011;68699;48.220;16.358;2024-03-17T04:14:53;5.00;;;4.50;;
79261;SDS011;68699;48.220;16.358;2024-03-17T04:17:20;6.40;;;3.93;;
79261;SDS011;68699;48.220;16.358;2024-03-17T04:19:49;5.97;;;3.90;;
79261;SDS011;68699;48.220;16.358;2024-03-17T04:22:16;4.93;;;4.23;;
79261;SDS011;68699;48.220;16.358;2024-03-17T04:24:46;5.53;;;3.87;;
79261;SDS011;68699;48.220;16.358;2024-03-17T04:27:13;4.67;;;3.83;;
79261;SDS011;68699;48.220;16.358;2024-03-17T04:29:39;4.60;;;3.73;;
79261;SDS011;68699;48.220;16.358;2024-03-17T04:32:06;4.23;;;3.77;;
79261;SDS011;68699;48.220;16.358;2024-03-17T04:34:32;4.10;;;3.70;;
79261;SDS011;68699;48.220;16.358;2024-03-17T04:36:58;4.10;;;3.67;;
79261;SDS011;68699;48.220;16.358;2024-03-17T04:39:25;5.30;;;3.50;;
79261;SDS011;68699;48.220;16.358;2024-03-17T04:41:51;4.37;;;3.40;;
79261;SDS011;68699;48.220;16.358;2024-03-17T04:44:17;5.27;;;3.40;;
79261;SDS011;68699;48.220;16.358;2024-03-17T04:46:44;4.97;;;3.47;;
79261;SDS011;68699;48.220;16.358;2024-03-17T04:49:11;4.03;;;3.47;;
79261;SDS011;68699;48.220;16.358;2024-03-17T04:51:37;3.80;;;3.30;;
79261;SDS011;68699;48.220;16.358;2024-03-17T04:54:03;3.67;;;3.37;;
79261;SDS011;68699;48.220;16.358;2024-03-17T04:56:30;3.83;;;3.53;;
79261;SDS011;68699;48.220;16.358;2024-03-17T04:58:57;3.50;;;3.20;;
79261;SDS011;68699;48.220;16.358;2024-03-17T05:01:23;3.63;;;3.33;;
79261;SDS011;68699;48.220;16.358;2024-03-17T05:03:52;3.50;;;3.20;;
79261;SDS011;68699;48.220;16.358;2024-03-17T05:06:19;4.80;;;4.07;;
79261;SDS011;68699;48.220;16.358;2024-03-17T05:08:45;4.27;;;3.77;;
79261;SDS011;68699;48.220;16.358;2024-03-17T05:11:11;5.17;;;3.87;;
79261;SDS011;68699;48.220;16.358;2024-03-17T05:13:39;4.07;;;3.30;;
79261;SDS011;68699;48.220;16.358;2024-03-17T05:16:05;4.87;;;3.87;;
79261;SDS011;68699;48.220;16.358;2024-03-17T05:18:31;4.03;;;3.60;;
79261;SDS011;68699;48.220;16.358;2024-03-17T05:21:05;5.40;;;3.57;;
79261;SDS011;68699;48.220;16.358;2024-03-17T05:23:32;3.80;;;3.50;;
79261;SDS011;68699;48.220;16.358;2024-03-17T05:25:58;3.83;;;3.37;;
79261;SDS011;68699;48.220;16.358;2024-03-17T05:28:25;4.00;;;3.60;;
79261;SDS011;68699;48.220;16.358;2024-03-17T05:30:52;4.73;;;3.77;;
79261;SDS011;68699;48.220;16.358;2024-03-17T05:33:18;4.50;;;3.10;;
79261;SDS011;68699;48.220;16.358;2024-03-17T05:35:59;3.53;;;3.17;;
79261;SDS011;68699;48.220;16.358;2024-03-17T05:38:27;4.57;;;3.33;;
79261;SDS011;68699;48.220;16.358;2024-03-17T05:40:57;5.47;;;3.70;;
79261;SDS011;68699;48.220;16.358;2024-03-17T05:43:26;3.47;;;3.17;;
79261;SDS011;68699;48.220;16.358;2024-03-17T05:45:53;4.27;;;3.17;;
79261;SDS011;68699;48.220;16.358;2024-03-17T05:48:19;4.73;;;3.30;;
79261;SDS011;68699;48.220;16.358;2024-03-17T05:50:46;3.70;;;3.37;;
79261;SDS011;68699;48.220;16.358;2024-03-17T05:53:12;5.57;;;3.10;;
79261;SDS011;68699;48.220;16.358;2024-03-17T05:55:38;3.70;;;2.93;;
79261;SDS011;68699;48.220;16.358;2024-03-17T05:58:08;3.67;;;2.90;;
79261;SDS011;68699;48.220;16.358;2024-03-17T06:00:35;4.53;;;3.17;;
79261;SDS011;68699;48.220;16.358;2024-03-17T06:03:01;4.70;;;2.93;;
79261;SDS011;68699;48.220;16.358;2024-03-17T06:05:31;3.17;;;2.87;;
79261;SDS011;68699;48.220;16.358;2024-03-17T06:07:58;3.67;;;3.10;;
79261;SDS011;68699;48.220;16.358;2024-03-17T06:10:24;5.90;;;3.10;;
79261;SDS011;68699;48.220;16.358;2024-03-17T06:12:52;3.90;;;3.10;;
79261;SDS011;68699;48.220;16.358;2024-03-17T06:15:18;2.90;;;2.60;;
79261;SDS011;68699;48.220;16.358;2024-03-17T06:17:46;3.77;;;2.90;;
79261;SDS011;68699;48.220;16.358;2024-03-17T06:20:12;3.47;;;2.70;;
79261;SDS011;68699;48.220;16.358;2024-03-17T06:22:39;3.10;;;2.70;;
79261;SDS011;68699;48.220;16.358;2024-03-17T06:25:08;4.30;;;2.83;;
79261;SDS011;68699;48.220;16.358;2024-03-17T06:27:34;3.30;;;2.80;;
79261;SDS011;68699;48.220;16.358;2024-03-17T06:30:01;4.87;;;2.87;;
79261;SDS011;68699;48.220;16.358;2024-03-17T06:32:32;4.23;;;2.60;;
79261;SDS011;68699;48.220;16.358;2024-03-17T06:34:58;3.47;;;2.90;;
79261;SDS011;68699;48.220;16.358;2024-03-17T06:37:24;4.80;;;2.50;;
79261;SDS011;68699;48.220;16.358;2024-03-17T06:39:51;4.23;;;3.20;;
79261;SDS011;68699;48.220;16.358;2024-03-17T06:42:17;4.37;;;2.90;;
79261;SDS011;68699;48.220;16.358;2024-03-17T06:44:43;4.73;;;2.70;;
79261;SDS011;68699;48.220;16.358;2024-03-17T06:47:10;4.93;;;2.73;;
79261;SDS011;68699;48.220;16.358;2024-03-17T06:49:36;3.53;;;2.57;;
79261;SDS011;68699;48.220;16.358;2024-03-17T06:52:02;3.63;;;2.90;;
79261;SDS011;68699;48.220;16.358;2024-03-17T06:54:28;3.00;;;2.40;;
79261;SDS011;68699;48.220;16.358;2024-03-17T06:56:57;4.07;;;2.40;;
79261;SDS011;68699;48.220;16.358;2024-03-17T06:59:23;3.23;;;2.40;;
79261;SDS011;68699;48.220;16.358;2024-03-17T07:01:49;2.73;;;2.50;;
79261;SDS011;68699;48.220;16.358;2024-03-17T07:04:15;2.93;;;2.10;;
79261;SDS011;68699;48.220;16.358;2024-03-17T07:06:42;3.80;;;2.40;;
79261;SDS011;68699;48.220;16.358;2024-03-17T07:09:08;2.53;;;2.33;;
79261;SDS011;68699;48.220;16.358;2024-03-17T07:11:35;2.97;;;2.10;;
79261;SDS011;68699;48.220;16.358;2024-03-17T07:14:01;2.63;;;2.20;;
79261;SDS011;68699;48.220;16.358;2024-03-17T07:16:28;4.03;;;2.50;;
79261;SDS011;68699;48.220;16.358;2024-03-17T07:18:57;3.40;;;2.23;;
79261;SDS011;68699;48.220;16.358;2024-03-17T07:21:24;4.97;;;2.80;;
79261;SDS011;68699;48.220;16.358;2024-03-17T07:23:50;3.00;;;2.20;;
79261;SDS011;68699;48.220;16.358;2024-03-17T07:26:16;3.33;;;2.40;;
79261;SDS011;68699;48.220;16.358;2024-03-17T07:28:42;4.93;;;2.80;;
79261;SDS011;68699;48.220;16.358;2024-03-17T07:31:09;2.90;;;2.60;;
79261;SDS011;68699;48.220;16.358;2024-03-17T07:33:36;2.57;;;2.33;;
79261;SDS011;68699;48.220;16.358;2024-03-17T07:36:03;2.70;;;2.10;;
79261;SDS011;68699;48.220;16.358;2024-03-17T07:38:30;3.50;;;2.43;;
79261;SDS011;68699;48.220;16.358;2024-03-17T07:40:57;2.87;;;2.30;;
79261;SDS011;68699;48.220;16.358;2024-03-17T07:43:24;3.33;;;2.33;;
79261;SDS011;68699;48.220;16.358;2024-03-17T07:46:00;3.50;;;2.00;;
79261;SDS011;68699;48.220;16.358;2024-03-17T07:48:26;2.63;;;2.20;;
79261;SDS011;68699;48.220;16.358;2024-03-17T07:51:00;2.60;;;2.07;;
79261;SDS011;68699;48.220;16.358;2024-03-17T07:53:30;2.33;;;2.13;;
79261;SDS011;68699;48.220;16.358;2024-03-17T07:56:03;3.27;;;1.97;;
79261;SDS011;68699;48.220;16.358;2024-03-17T07:58:30;2.47;;;2.23;;
79261;SDS011;68699;48.220;16.358;2024-03-17T08:01:00;3.57;;;2.10;;
79261;SDS011;68699;48.220;16.358;2024-03-17T08:03:30;2.50;;;2.13;;
79261;SDS011;68699;48.220;16.358;2024-03-17T08:05:57;2.33;;;2.13;;
79261;SDS011;68699;48.220;16.358;2024-03-17T08:08:23;2.93;;;2.40;;
79261;SDS011;68699;48.220;16.358;2024-03-17T08:10:51;2.67;;;2.23;;
79261;SDS011;68699;48.220;16.358;2024-03-17T08:13:17;3.43;;;2.30;;
79261;SDS011;68699;48.220;16.358;2024-03-17T08:15:44;2.50;;;2.30;;
79261;SDS011;68699;48.220;16.358;2024-03-17T08:18:11;2.93;;;2.07;;
79261;SDS011;68699;48.220;16.358;2024-03-17T08:20:38;3.33;;;2.10;;
79261;SDS011;68699;48.220;16.358;2024-03-17T08:23:06;3.47;;;1.90;;
79261;SDS011;68699;48.220;16.358;2024-03-17T08:25:33;2.90;;;2.20;;
79261;SDS011;68699;48.220;16.358;2024-03-17T08:27:59;2.10;;;1.90;;
79261;SDS011;68699;48.220;16.358;2024-03-17T08:30:26;4.17;;;2.10;;
79261;SDS011;68699;48.220;16.358;2024-03-17T08:32:52;2.47;;;1.93;;
79261;SDS011;68699;48.220;16.358;2024-03-17T08:35:18;3.20;;;2.90;;
79261;SDS011;68699;48.220;16.358;2024-03-17T08:37:45;3.50;;;2.30;;
79261;SDS011;68699;48.220;16.358;2024-03-17T08:40:13;3.83;;;2.03;;
79261;SDS011;68699;48.220;16.358;2024-03-17T08:42:39;1.97;;;1.80;;
79261;SDS011;68699;48.220;16.358;2024-03-17T08:45:06;2.10;;;1.70;;
79261;SDS011;68699;48.220;16.358;2024-03-17T08:47:34;1.93;;;1.73;;
79261;SDS011;68699;48.220;16.358;2024-03-17T08:50:00;2.20;;;2.00;;
79261;SDS011;68699;48.220;16.358;2024-03-17T08:52:29;2.27;;;2.07;;
79261;SDS011;68699;48.220;16.358;2024-03-17T08:54:59;2.40;;;1.87;;
79261;SDS011;68699;48.220;16.358;2024-03-17T08:57:28;2.30;;;2.10;;
79261;SDS011;68699;48.220;16.358;2024-03-17T08:59:54;3.10;;;2.30;;
79261;SDS011;68699;48.220;16.358;2024-03-17T09:02:21;2.40;;;2.20;;
79261;SDS011;68699;48.220;16.358;2024-03-17T09:04:47;2.40;;;2.20;;
79261;SDS011;68699;48.220;16.358;2024-03-17T09:07:14;2.90;;;2.60;;
79261;SDS011;68699;48.220;16.358;2024-03-17T09:09:42;2.70;;;2.20;;
79261;SDS011;68699;48.220;16.358;2024-03-17T09:12:08;2.07;;;1.97;;
79261;SDS011;68699;48.220;16.358;2024-03-17T09:14:34;3.23;;;2.40;;
79261;SDS011;68699;48.220;16.358;2024-03-17T09:17:01;2.50;;;2.20;;
79261;SDS011;68699;48.220;16.358;2024-03-17T09:19:28;1.93;;;1.80;;
79261;SDS011;68699;48.220;16.358;2024-03-17T09:21:55;2.50;;;2.30;;
79261;SDS011;68699;48.220;16.358;2024-03-17T09:24:21;2.20;;;2.00;;
79261;SDS011;68699;48.220;16.358;2024-03-17T09:26:47;2.77;;;2.17;;
79261;SDS011;68699;48.220;16.358;2024-03-17T09:29:13;2.93;;;2.20;;
79261;SDS011;68699;48.220;16.358;2024-03-17T09:31:40;2.30;;;2.10;;
79261;SDS011;68699;48.220;16.358;2024-03-17T09:34:07;2.53;;;2.33;;
79261;SDS011;68699;48.220;16.358;2024-03-17T09:36:33;2.27;;;1.97;;
79261;SDS011;68699;48.220;16.358;2024-03-17T09:39:00;2.73;;;2.10;;
79261;SDS011;68699;48.220;16.358;2024-03-17T09:41:29;2.40;;;2.00;;
79261;SDS011;68699;48.220;16.358;2024-03-17T09:43:58;2.93;;;2.20;;
79261;SDS011;68699;48.220;16.358;2024-03-17T09:46:25;3.03;;;2.67;;
79261;SDS011;68699;48.220;16.358;2024-03-17T09:48:53;3.97;;;2.40;;
79261;SDS011;68699;48.220;16.358;2024-03-17T09:51:20;2.20;;;2.00;;
79261;SDS011;68699;48.220;16.358;2024-03-17T09:53:47;2.77;;;1.80;;
79261;SDS011;68699;48.220;16.358;2024-03-17T09:56:13;3.77;;;1.97;;
79261;SDS011;68699;48.220;16.358;2024-03-17T09:58:46;1.87;;;1.77;;
79261;SDS011;68699;48.220;16.358;2024-03-17T10:01:13;2.47;;;2.27;;
79261;SDS011;68699;48.220;16.358;2024-03-17T10:03:48;2.10;;;1.90;;
79261;SDS011;68699;48.220;16.358;2024-03-17T10:06:17;3.10;;;2.20;;
79261;SDS011;68699;48.220;16.358;2024-03-17T10:09:04;2.50;;;1.73;;
79261;SDS011;68699;48.220;16.358;2024-03-17T10:11:35;3.07;;;1.90;;
79261;SDS011;68699;48.220;16.358;2024-03-17T10:14:21;1.93;;;1.83;;
79261;SDS011;68699;48.220;16.358;2024-03-17T10:16:47;1.93;;;1.83;;
79261;SDS011;68699;48.220;16.358;2024-03-17T10:19:15;2.40;;;2.20;;
79261;SDS011;68699;48.220;16.358;2024-03-17T10:21:46;3.03;;;2.00;;
79261;SDS011;68699;48.220;16.358;2024-03-17T10:24:20;2.10;;;1.87;;
79261;SDS011;68699;48.220;16.358;2024-03-17T10:26:50;1.93;;;1.80;;
79261;SDS011;68699;48.220;16.358;2024-03-17T10:29:26;3.00;;;1.80;;
79261;SDS011;68699;48.220;16.358;2024-03-17T10:31:58;2.27;;;1.90;;
79261;SDS011;68699;48.220;16.358;2024-03-17T10:34:27;2.17;;;1.80;;
79261;SDS011;68699;48.220;16.358;2024-03-17T10:37:09;2.37;;;1.93;;
79261;SDS011;68699;48.220;16.358;2024-03-17T10:39:42;3.50;;;2.00;;
79261;SDS011;68699;48.220;16.358;2024-03-17T10:42:09;2.27;;;1.73;;
79261;SDS011;68699;48.220;16.358;2024-03-17T10:44:36;2.17;;;1.97;;
79261;SDS011;68699;48.220;16.358;2024-03-17T10:47:03;1.80;;;1.70;;
79261;SDS011;68699;48.220;16.358;2024-03-17T10:49:35;2.10;;;1.90;;
79261;SDS011;68699;48.220;16.358;2024-03-17T10:52:03;1.83;;;1.73;;
79261;SDS011;68699;48.220;16.358;2024-03-17T10:54:30;2.13;;;1.80;;
79261;SDS011;68699;48.220;16.358;2024-03-17T10:59:45;2.23;;;1.93;;
79261;SDS011;68699;48.220;16.358;2024-03-17T11:02:22;1.87;;;1.67;;
79261;SDS011;68699;48.220;16.358;2024-03-17T11:05:33;2.27;;;1.60;;
79261;SDS011;68699;48.220;16.358;2024-03-17T11:07:38;2.00;;;1.90;;
79261;SDS011;68699;48.220;16.358;2024-03-17T11:10:10;2.20;;;2.00;;
79261;SDS011;68699;48.220;16.358;2024-03-17T11:12:45;2.43;;;2.00;;
79261;SDS011;68699;48.220;16.358;2024-03-17T11:20:39;2.37;;;1.87;;
79261;SDS011;68699;48.220;16.358;2024-03-17T11:23:06;2.10;;;1.90;;
79261;SDS011;68699;48.220;16.358;2024-03-17T11:28:05;2.20;;;1.70;;
79261;SDS011;68699;48.220;16.358;2024-03-17T11:30:41;2.03;;;1.70;;
79261;SDS011;68699;48.220;16.358;2024-03-17T11:36:29;2.70;;;1.80;;
79261;SDS011;68699;48.220;16.358;2024-03-17T11:38:52;2.63;;;2.00;;
79261;SDS011;68699;48.220;16.358;2024-03-17T11:47:02;1.80;;;1.70;;
79261;SDS011;68699;48.220;16.358;2024-03-17T11:49:36;1.80;;;1.70;;
79261;SDS011;68699;48.220;16.358;2024-03-17T11:52:03;2.10;;;1.90;;
79261;SDS011;68699;48.220;16.358;2024-03-17T11:54:37;1.83;;;1.57;;
79261;SDS011;68699;48.220;16.358;2024-03-17T11:57:08;1.90;;;1.50;;
79261;SDS011;68699;48.220;16.358;2024-03-17T11:59:39;3.57;;;1.87;;
79261;SDS011;68699;48.220;16.358;2024-03-17T12:04:40;2.00;;;1.90;;
79261;SDS011;68699;48.220;16.358;2024-03-17T12:07:09;1.73;;;1.63;;
79261;SDS011;68699;48.220;16.358;2024-03-17T12:09:38;2.50;;;1.70;;
79261;SDS011;68699;48.220;16.358;2024-03-17T12:12:05;1.63;;;1.53;;
79261;SDS011;68699;48.220;16.358;2024-03-17T12:14:37;1.70;;;1.60;;
79261;SDS011;68699;48.220;16.358;2024-03-17T12:17:07;1.87;;;1.73;;
79261;SDS011;68699;48.220;16.358;2024-03-17T12:19:33;1.50;;;1.40;;
79261;SDS011;68699;48.220;16.358;2024-03-17T12:22:00;1.77;;;1.67;;
79261;SDS011;68699;48.220;16.358;2024-03-17T12:24:27;1.60;;;1.50;;
79261;SDS011;68699;48.220;16.358;2024-03-17T12:26:57;2.10;;;1.80;;
79261;SDS011;68699;48.220;16.358;2024-03-17T12:31:59;1.70;;;1.60;;
79261;SDS011;68699;48.220;16.358;2024-03-17T12:34:27;2.20;;;1.50;;
79261;SDS011;68699;48.220;16.358;2024-03-17T12:36:53;1.50;;;1.40;;
79261;SDS011;68699;48.220;16.358;2024-03-17T12:39:24;2.30;;;1.47;;
79261;SDS011;68699;48.220;16.358;2024-03-17T12:42:09;1.90;;;1.40;;
79261;SDS011;68699;48.220;16.358;2024-03-17T12:44:38;1.60;;;1.50;;
79261;SDS011;68699;48.220;16.358;2024-03-17T12:47:11;1.70;;;1.60;;
79261;SDS011;68699;48.220;16.358;2024-03-17T12:49:44;1.33;;;1.23;;
79261;SDS011;68699;48.220;16.358;2024-03-17T12:52:16;1.80;;;1.70;;
79261;SDS011;68699;48.220;16.358;2024-03-17T12:54:42;1.80;;;1.70;;
79261;SDS011;68699;48.220;16.358;2024-03-17T12:57:15;1.97;;;1.40;;
79261;SDS011;68699;48.220;16.358;2024-03-17T13:00:00;2.00;;;1.43;;
79261;SDS011;68699;48.220;16.358;2024-03-17T13:02:44;1.70;;;1.60;;
79261;SDS011;68699;48.220;16.358;2024-03-17T13:05:18;1.30;;;1.30;;
79261;SDS011;68699;48.220;16.358;2024-03-17T13:07:45;1.70;;;1.60;;
79261;SDS011;68699;48.220;16.358;2024-03-17T13:10:18;1.67;;;1.30;;
79261;SDS011;68699;48.220;16.358;2024-03-17T13:12:45;2.63;;;1.50;;
79261;SDS011;68699;48.220;16.358;2024-03-17T13:15:15;1.53;;;1.43;;
79261;SDS011;68699;48.220;16.358;2024-03-17T13:17:42;1.70;;;1.60;;
79261;SDS011;68699;48.220;16.358;2024-03-17T13:20:12;2.43;;;1.60;;
79261;SDS011;68699;48.220;16.358;2024-03-17T13:22:38;1.70;;;1.60;;
79261;SDS011;68699;48.220;16.358;2024-03-17T13:25:07;1.63;;;1.53;;
79261;SDS011;68699;48.220;16.358;2024-03-17T13:27:35;1.63;;;1.53;;
79261;SDS011;68699;48.220;16.358;2024-03-17T13:30:01;1.53;;;1.37;;
79261;SDS011;68699;48.220;16.358;2024-03-17T13:32:28;2.40;;;1.50;;
79261;SDS011;68699;48.220;16.358;2024-03-17T13:34:54;1.67;;;1.37;;
79261;SDS011;68699;48.220;16.358;2024-03-17T13:37:20;1.47;;;1.30;;
79261;SDS011;68699;48.220;16.358;2024-03-17T13:39:47;2.77;;;1.97;;
79261;SDS011;68699;48.220;16.358;2024-03-17T13:42:14;1.70;;;1.60;;
79261;SDS011;68699;48.220;16.358;2024-03-17T13:44:41;2.20;;;1.50;;
79261;SDS011;68699;48.220;16.358;2024-03-17T13:47:07;1.67;;;1.33;;
79261;SDS011;68699;48.220;16.358;2024-03-17T13:49:33;1.80;;;1.40;;
79261;SDS011;68699;48.220;16.358;2024-03-17T13:52:00;1.47;;;1.37;;
79261;SDS011;68699;48.220;16.358;2024-03-17T13:54:26;2.37;;;1.70;;
79261;SDS011;68699;48.220;16.358;2024-03-17T13:56:53;1.87;;;1.50;;
79261;SDS011;68699;48.220;16.358;2024-03-17T13:59:19;1.50;;;1.40;;
79261;SDS011;68699;48.220;16.358;2024-03-17T14:01:47;2.90;;;1.47;;
79261;SDS011;68699;48.220;16.358;2024-03-17T14:04:15;1.57;;;1.47;;
79261;SDS011;68699;48.220;16.358;2024-03-17T14:06:45;2.00;;;1.43;;
79261;SDS011;68699;48.220;16.358;2024-03-17T14:09:12;2.17;;;1.70;;
79261;SDS011;68699;48.220;16.358;2024-03-17T14:11:39;1.83;;;1.30;;
79261;SDS011;68699;48.220;16.358;2024-03-17T14:14:05;1.73;;;1.40;;
79261;SDS011;68699;48.220;16.358;2024-03-17T14:16:33;2.03;;;1.60;;
79261;SDS011;68699;48.220;16.358;2024-03-17T14:18:59;1.63;;;1.40;;
79261;SDS011;68699;48.220;16.358;2024-03-17T14:21:28;2.23;;;1.50;;
79261;SDS011;68699;48.220;16.358;2024-03-17T14:23:55;1.57;;;1.47;;
79261;SDS011;68699;48.220;16.358;2024-03-17T14:26:24;2.20;;;1.53;;
79261;SDS011;68699;48.220;16.358;2024-03-17T14:28:50;1.40;;;1.30;;
79261;SDS011;68699;48.220;16.358;2024-03-17T14:31:19;1.97;;;1.27;;
79261;SDS011;68699;48.220;16.358;2024-03-17T14:33:48;2.40;;;1.60;;
79261;SDS011;68699;48.220;16.358;2024-03-17T14:36:15;2.23;;;1.30;;
79261;SDS011;68699;48.220;16.358;2024-03-17T14:38:43;2.00;;;1.37;;
79261;SDS011;68699;48.220;16.358;2024-03-17T14:41:09;2.70;;;1.80;;
79261;SDS011;68699;48.220;16.358;2024-03-17T14:43:36;1.57;;;1.47;;
79261;SDS011;68699;48.220;16.358;2024-03-17T14:46:03;1.77;;;1.60;;
79261;SDS011;68699;48.220;16.358;2024-03-17T14:48:32;1.27;;;1.17;;
79261;SDS011;68699;48.220;16.358;2024-03-17T14:50:59;2.03;;;1.30;;
79261;SDS011;68699;48.220;16.358;2024-03-17T14:53:26;1.53;;;1.43;;
79261;SDS011;68699;48.220;16.358;2024-03-17T14:55:52;1.50;;;1.37;;
79261;SDS011;68699;48.220;16.358;2024-03-17T14:58:18;2.57;;;1.53;;
79261;SDS011;68699;48.220;16.358;2024-03-17T15:00:46;1.40;;;1.30;;